sensor_id;sensor_type;location;lat;lon;timestamp;pressure;altitude;pressure_sealevel;temperature;humidity
64551;BME280;50945;44.472;-123.352;2022-08-19T00:01:28;99931.53;;;32.13;44.11
64551;BME280;50945;44.472;-123.352;2022-08-19T00:04:02;99922.75;;;32.06;43.96
64551;BME280;50945;44.472;-123.352;2022-08-19T00:06:30;99929.91;;;32.03;44.51
64551;BME280;50945;44.472;-123.352;2022-08-19T00:08:57;99929.22;;;31.98;44.53
64551;BME280;50945;44.472;-123.352;2022-08-19T00:11:26;99921.63;;;31.90;45.16
64551;BME280;50945;44.472;-123.352;2022-08-19T00:13:56;99914.88;;;31.82;45.41
64551;BME280;50945;44.472;-123.352;2022-08-19T00:16:24;99915.38;;;31.75;45.24
64551;BME280;50945;44.472;-123.352;2022-08-19T00:18:50;99906.59;;;31.68;45.43
64551;BME280;50945;44.472;-123.352;2022-08-19T00:21:17;99911.25;;;31.64;45.16
64551;BME280;50945;44.472;-123.352;2022-08-19T00:23:43;99911.47;;;31.59;45.23
64551;BME280;50945;44.472;-123.352;2022-08-19T00:26:11;99908.97;;;31.57;45.55
64551;BME280;50945;44.472;-123.352;2022-08-19T00:28:37;99907.63;;;31.55;45.41
64551;BME280;50945;44.472;-123.352;2022-08-19T00:31:05;99902.66;;;31.52;45.44
64551;BME280;50945;44.472;-123.352;2022-08-19T00:33:32;99903.84;;;31.51;45.63
64551;BME280;50945;44.472;-123.352;2022-08-19T00:35:59;99911.13;;;31.52;45.73
64551;BME280;50945;44.472;-123.352;2022-08-19T00:38:26;99903.84;;;31.51;45.97
64551;BME280;50945;44.472;-123.352;2022-08-19T00:40:52;99919.41;;;31.48;46.22
64551;BME280;50945;44.472;-123.352;2022-08-19T00:43:21;99930.06;;;31.42;46.58
64551;BME280;50945;44.472;-123.352;2022-08-19T00:45:48;99925.09;;;31.39;46.38
64551;BME280;50945;44.472;-123.352;2022-08-19T00:48:16;99921.94;;;31.32;46.76
64551;BME280;50945;44.472;-123.352;2022-08-19T00:50:44;99928.44;;;31.24;47.10
64551;BME280;50945;44.472;-123.352;2022-08-19T00:53:12;99920.31;;;31.14;47.19
64551;BME280;50945;44.472;-123.352;2022-08-19T00:55:42;99911.50;;;31.06;47.39
64551;BME280;50945;44.472;-123.352;2022-08-19T00:58:13;99916.84;;;30.99;47.70
64551;BME280;50945;44.472;-123.352;2022-08-19T01:00:41;99918.19;;;30.93;48.08
64551;BME280;50945;44.472;-123.352;2022-08-19T01:03:11;99919.28;;;30.83;47.97
64551;BME280;50945;44.472;-123.352;2022-08-19T01:05:39;99921.44;;;30.60;48.10
64551;BME280;50945;44.472;-123.352;2022-08-19T01:08:07;99928.53;;;30.40;48.43
64551;BME280;50945;44.472;-123.352;2022-08-19T01:10:39;99927.31;;;30.24;48.76
64551;BME280;50945;44.472;-123.352;2022-08-19T01:13:06;99932.03;;;30.06;48.88
64551;BME280;50945;44.472;-123.352;2022-08-19T01:15:35;99932.50;;;29.90;48.82
64551;BME280;50945;44.472;-123.352;2022-08-19T01:18:06;99916.31;;;29.73;49.05
64551;BME280;50945;44.472;-123.352;2022-08-19T01:20:34;99915.72;;;29.54;49.39
64551;BME280;50945;44.472;-123.352;2022-08-19T01:23:01;99903.66;;;29.31;49.58
64551;BME280;50945;44.472;-123.352;2022-08-19T01:25:35;99887.91;;;29.07;50.16
64551;BME280;50945;44.472;-123.352;2022-08-19T01:28:02;99891.03;;;28.83;50.26
64551;BME280;50945;44.472;-123.352;2022-08-19T01:30:32;99887.34;;;28.60;50.56
64551;BME280;50945;44.472;-123.352;2022-08-19T01:32:59;99880.50;;;28.38;51.04
64551;BME280;50945;44.472;-123.352;2022-08-19T01:35:29;99888.03;;;28.29;51.13
64551;BME280;50945;44.472;-123.352;2022-08-19T01:38:02;99886.25;;;28.19;51.36
64551;BME280;50945;44.472;-123.352;2022-08-19T01:40:31;99885.34;;;28.10;51.69
64551;BME280;50945;44.472;-123.352;2022-08-19T01:42:59;99876.19;;;27.91;51.93
64551;BME280;50945;44.472;-123.352;2022-08-19T01:45:27;99869.81;;;27.85;51.74
64551;BME280;50945;44.472;-123.352;2022-08-19T01:47:54;99876.16;;;27.77;52.08
64551;BME280;50945;44.472;-123.352;2022-08-19T01:50:21;99874.09;;;27.68;52.33
64551;BME280;50945;44.472;-123.352;2022-08-19T01:52:47;99879.91;;;27.58;52.33
64551;BME280;50945;44.472;-123.352;2022-08-19T01:55:18;99883.09;;;27.52;52.63
64551;BME280;50945;44.472;-123.352;2022-08-19T01:57:50;99893.50;;;27.51;52.55
64551;BME280;50945;44.472;-123.352;2022-08-19T02:00:19;99895.59;;;27.45;52.37
64551;BME280;50945;44.472;-123.352;2022-08-19T02:02:45;99902.41;;;27.39;52.42
64551;BME280;50945;44.472;-123.352;2022-08-19T02:05:12;99916.75;;;27.38;52.41
64551;BME280;50945;44.472;-123.352;2022-08-19T02:07:40;99930.03;;;27.32;52.37
64551;BME280;50945;44.472;-123.352;2022-08-19T02:10:11;99939.41;;;27.27;52.48
64551;BME280;50945;44.472;-123.352;2022-08-19T02:12:37;99935.81;;;27.22;52.36
64551;BME280;50945;44.472;-123.352;2022-08-19T02:15:04;99936.50;;;27.13;52.52
64551;BME280;50945;44.472;-123.352;2022-08-19T02:17:32;99931.28;;;27.07;52.87
64551;BME280;50945;44.472;-123.352;2022-08-19T02:19:58;99936.28;;;26.91;52.88
64551;BME280;50945;44.472;-123.352;2022-08-19T02:22:26;99941.75;;;26.82;53.07
64551;BME280;50945;44.472;-123.352;2022-08-19T02:24:53;99955.03;;;26.77;52.96
64551;BME280;50945;44.472;-123.352;2022-08-19T02:27:19;99964.19;;;26.63;53.23
64551;BME280;50945;44.472;-123.352;2022-08-19T02:29:47;99962.69;;;26.47;53.41
64551;BME280;50945;44.472;-123.352;2022-08-19T02:32:15;99956.75;;;26.29;53.44
64551;BME280;50945;44.472;-123.352;2022-08-19T02:34:42;99953.13;;;26.05;53.89
64551;BME280;50945;44.472;-123.352;2022-08-19T02:37:08;99959.31;;;25.72;54.47
64551;BME280;50945;44.472;-123.352;2022-08-19T02:39:57;99964.34;;;25.46;54.55
64551;BME280;50945;44.472;-123.352;2022-08-19T02:42:24;99969.28;;;25.25;54.90
64551;BME280;50945;44.472;-123.352;2022-08-19T02:44:51;99956.19;;;25.10;55.05
64551;BME280;50945;44.472;-123.352;2022-08-19T02:47:18;99957.16;;;24.95;55.19
64551;BME280;50945;44.472;-123.352;2022-08-19T02:49:47;99949.97;;;24.84;55.47
64551;BME280;50945;44.472;-123.352;2022-08-19T02:52:15;99950.31;;;24.72;55.57
64551;BME280;50945;44.472;-123.352;2022-08-19T02:54:42;99949.25;;;24.63;55.69
64551;BME280;50945;44.472;-123.352;2022-08-19T02:57:10;99950.72;;;24.55;55.71
64551;BME280;50945;44.472;-123.352;2022-08-19T02:59:36;99954.06;;;24.47;56.04
64551;BME280;50945;44.472;-123.352;2022-08-19T03:02:03;99971.66;;;24.42;56.09
64551;BME280;50945;44.472;-123.352;2022-08-19T03:04:29;99979.78;;;24.39;56.12
64551;BME280;50945;44.472;-123.352;2022-08-19T03:06:56;99978.97;;;24.38;56.17
64551;BME280;50945;44.472;-123.352;2022-08-19T03:09:22;99979.25;;;24.32;56.35
64551;BME280;50945;44.472;-123.352;2022-08-19T03:11:48;99982.34;;;24.25;56.54
64551;BME280;50945;44.472;-123.352;2022-08-19T03:14:15;99991.34;;;24.17;56.41
64551;BME280;50945;44.472;-123.352;2022-08-19T03:16:46;99996.66;;;24.08;56.67
64551;BME280;50945;44.472;-123.352;2022-08-19T03:19:15;100002.25;;;23.98;56.98
64551;BME280;50945;44.472;-123.352;2022-08-19T03:21:42;100005.94;;;23.93;56.91
64551;BME280;50945;44.472;-123.352;2022-08-19T03:24:11;99998.38;;;23.88;56.98
64551;BME280;50945;44.472;-123.352;2022-08-19T03:26:43;99993.09;;;23.82;57.20
64551;BME280;50945;44.472;-123.352;2022-08-19T03:29:09;99991.41;;;23.76;60.15
64551;BME280;50945;44.472;-123.352;2022-08-19T03:31:38;99997.81;;;23.71;57.35
64551;BME280;50945;44.472;-123.352;2022-08-19T03:34:05;100011.22;;;23.64;57.66
64551;BME280;50945;44.472;-123.352;2022-08-19T03:36:31;100012.03;;;23.59;57.79
64551;BME280;50945;44.472;-123.352;2022-08-19T03:38:59;100002.03;;;23.53;57.98
64551;BME280;50945;44.472;-123.352;2022-08-19T03:41:32;100004.53;;;23.49;58.19
64551;BME280;50945;44.472;-123.352;2022-08-19T03:43:59;100013.72;;;23.50;58.33
64551;BME280;50945;44.472;-123.352;2022-08-19T03:46:29;100028.22;;;23.52;58.53
64551;BME280;50945;44.472;-123.352;2022-08-19T03:48:58;100027.41;;;23.57;58.63
64551;BME280;50945;44.472;-123.352;2022-08-19T03:51:27;100026.56;;;23.61;58.83
64551;BME280;50945;44.472;-123.352;2022-08-19T03:53:58;100029.66;;;23.65;58.57
64551;BME280;50945;44.472;-123.352;2022-08-19T03:56:25;100035.22;;;23.65;58.74
64551;BME280;50945;44.472;-123.352;2022-08-19T03:58:54;100034.09;;;23.66;58.86
64551;BME280;50945;44.472;-123.352;2022-08-19T04:01:22;100031.31;;;23.66;58.99
64551;BME280;50945;44.472;-123.352;2022-08-19T04:03:49;100031.31;;;23.66;58.98
64551;BME280;50945;44.472;-123.352;2022-08-19T04:06:28;100033.25;;;23.65;60.28
64551;BME280;50945;44.472;-123.352;2022-08-19T04:08:57;100038.84;;;23.65;59.13
64551;BME280;50945;44.472;-123.352;2022-08-19T04:11:51;100043.59;;;23.65;60.39
64551;BME280;50945;44.472;-123.352;2022-08-19T04:14:23;100029.91;;;23.63;58.86
64551;BME280;50945;44.472;-123.352;2022-08-19T04:16:50;100031.28;;;23.61;58.99
64551;BME280;50945;44.472;-123.352;2022-08-19T04:19:18;100036.31;;;23.59;58.99
64551;BME280;50945;44.472;-123.352;2022-08-19T04:21:47;100038.84;;;23.55;60.39
64551;BME280;50945;44.472;-123.352;2022-08-19T04:24:15;100038.56;;;23.51;59.01
64551;BME280;50945;44.472;-123.352;2022-08-19T04:26:41;100041.91;;;23.48;59.09
64551;BME280;50945;44.472;-123.352;2022-08-19T04:29:11;100050.56;;;23.47;59.04
64551;BME280;50945;44.472;-123.352;2022-08-19T04:31:39;100044.69;;;23.43;59.12
64551;BME280;50945;44.472;-123.352;2022-08-19T04:34:08;100049.69;;;23.41;59.08
64551;BME280;50945;44.472;-123.352;2022-08-19T04:36:40;100055.56;;;23.40;59.15
64551;BME280;50945;44.472;-123.352;2022-08-19T04:39:13;100063.91;;;23.40;59.70
64551;BME280;50945;44.472;-123.352;2022-08-19T04:41:40;100061.72;;;23.37;59.14
64551;BME280;50945;44.472;-123.352;2022-08-19T04:44:25;100064.47;;;23.31;59.20
64551;BME280;50945;44.472;-123.352;2022-08-19T04:46:52;100057.78;;;23.27;59.23
64551;BME280;50945;44.472;-123.352;2022-08-19T04:49:21;100066.97;;;23.23;59.52
64551;BME280;50945;44.472;-123.352;2022-08-19T04:51:48;100066.41;;;23.15;59.43
64551;BME280;50945;44.472;-123.352;2022-08-19T04:54:17;100064.44;;;23.11;59.69
64551;BME280;50945;44.472;-123.352;2022-08-19T04:56:44;100063.81;;;23.04;59.96
64551;BME280;50945;44.472;-123.352;2022-08-19T04:59:11;100068.81;;;22.96;60.02
64551;BME280;50945;44.472;-123.352;2022-08-19T05:01:37;100064.63;;;22.89;60.27
64551;BME280;50945;44.472;-123.352;2022-08-19T05:04:05;100065.44;;;22.84;60.64
64551;BME280;50945;44.472;-123.352;2022-08-19T05:06:33;100065.13;;;22.75;60.48
64551;BME280;50945;44.472;-123.352;2022-08-19T05:09:02;100080.44;;;22.68;60.77
64551;BME280;50945;44.472;-123.352;2022-08-19T05:11:33;100083.47;;;22.66;61.35
64551;BME280;50945;44.472;-123.352;2022-08-19T05:14:00;100071.19;;;22.57;60.65
64551;BME280;50945;44.472;-123.352;2022-08-19T05:16:27;100076.72;;;22.52;61.41
64551;BME280;50945;44.472;-123.352;2022-08-19T05:18:55;100075.03;;;22.46;61.07
64551;BME280;50945;44.472;-123.352;2022-08-19T05:21:40;100076.69;;;22.42;60.84
64551;BME280;50945;44.472;-123.352;2022-08-19T05:24:26;100075.00;;;22.35;61.06
64551;BME280;50945;44.472;-123.352;2022-08-19T05:26:54;100084.13;;;22.31;61.47
64551;BME280;50945;44.472;-123.352;2022-08-19T05:29:24;100093.53;;;22.25;61.20
64551;BME280;50945;44.472;-123.352;2022-08-19T05:31:52;100097.09;;;22.15;61.59
64551;BME280;50945;44.472;-123.352;2022-08-19T05:34:20;100099.31;;;22.13;61.44
64551;BME280;50945;44.472;-123.352;2022-08-19T05:36:49;100098.16;;;22.09;61.44
64551;BME280;50945;44.472;-123.352;2022-08-19T05:39:19;100097.00;;;22.05;61.38
64551;BME280;50945;44.472;-123.352;2022-08-19T05:41:48;100100.03;;;21.98;61.39
64551;BME280;50945;44.472;-123.352;2022-08-19T05:44:16;100095.53;;;21.92;61.59
64551;BME280;50945;44.472;-123.352;2022-08-19T05:46:46;100095.47;;;21.87;61.87
64551;BME280;50945;44.472;-123.352;2022-08-19T05:49:19;100097.66;;;21.79;61.81
64551;BME280;50945;44.472;-123.352;2022-08-19T05:51:50;100101.78;;;21.72;62.17
64551;BME280;50945;44.472;-123.352;2022-08-19T05:54:17;100103.09;;;21.64;62.18
64551;BME280;50945;44.472;-123.352;2022-08-19T05:56:44;100103.06;;;21.59;62.55
64551;BME280;50945;44.472;-123.352;2022-08-19T05:59:14;100106.31;;;21.51;62.60
64551;BME280;50945;44.472;-123.352;2022-08-19T06:01:43;100110.13;;;21.44;62.78
64551;BME280;50945;44.472;-123.352;2022-08-19T06:04:10;100115.88;;;21.38;62.86
64551;BME280;50945;44.472;-123.352;2022-08-19T06:06:37;100111.34;;;21.32;62.79
64551;BME280;50945;44.472;-123.352;2022-08-19T06:09:04;100106.28;;;21.23;63.22
64551;BME280;50945;44.472;-123.352;2022-08-19T06:14:07;100116.31;;;21.02;63.68
64551;BME280;50945;44.472;-123.352;2022-08-19T06:16:38;100121.19;;;20.90;64.34
64551;BME280;50945;44.472;-123.352;2022-08-19T06:19:09;100122.22;;;20.84;64.29
64551;BME280;50945;44.472;-123.352;2022-08-19T06:21:38;100127.97;;;20.77;64.13
64551;BME280;50945;44.472;-123.352;2022-08-19T06:24:07;100123.34;;;20.66;66.03
64551;BME280;50945;44.472;-123.352;2022-08-19T06:26:36;100135.16;;;20.56;64.76
64551;BME280;50945;44.472;-123.352;2022-08-19T06:29:04;100126.75;;;20.51;64.93
64551;BME280;50945;44.472;-123.352;2022-08-19T06:31:33;100124.69;;;20.41;66.55
64551;BME280;50945;44.472;-123.352;2022-08-19T06:34:01;100129.28;;;20.36;65.74
64551;BME280;50945;44.472;-123.352;2022-08-19T06:36:36;100130.31;;;20.29;65.92
64551;BME280;50945;44.472;-123.352;2022-08-19T06:39:06;100134.38;;;20.22;66.02
64551;BME280;50945;44.472;-123.352;2022-08-19T06:41:39;100136.75;;;20.13;68.34
64551;BME280;50945;44.472;-123.352;2022-08-19T06:44:06;100140.28;;;20.08;65.98
64551;BME280;50945;44.472;-123.352;2022-08-19T06:46:33;100146.56;;;20.04;66.12
64551;BME280;50945;44.472;-123.352;2022-08-19T06:49:00;100135.66;;;19.97;66.44
64551;BME280;50945;44.472;-123.352;2022-08-19T06:51:26;100137.47;;;19.91;66.31
64551;BME280;50945;44.472;-123.352;2022-08-19T06:53:53;100147.06;;;19.84;66.57
64551;BME280;50945;44.472;-123.352;2022-08-19T06:56:22;100138.06;;;19.77;66.58
64551;BME280;50945;44.472;-123.352;2022-08-19T06:58:50;100154.00;;;19.69;67.48
64551;BME280;50945;44.472;-123.352;2022-08-19T07:01:19;100146.41;;;19.65;66.91
64551;BME280;50945;44.472;-123.352;2022-08-19T07:03:46;100154.91;;;19.58;67.07
64551;BME280;50945;44.472;-123.352;2022-08-19T07:06:15;100150.44;;;19.57;66.86
64551;BME280;50945;44.472;-123.352;2022-08-19T07:08:44;100149.28;;;19.53;67.27
64551;BME280;50945;44.472;-123.352;2022-08-19T07:11:15;100157.97;;;19.45;67.60
64551;BME280;50945;44.472;-123.352;2022-08-19T07:13:44;100164.78;;;19.37;67.75
64551;BME280;50945;44.472;-123.352;2022-08-19T07:16:17;100165.50;;;19.32;69.07
64551;BME280;50945;44.472;-123.352;2022-08-19T07:18:49;100164.22;;;19.23;68.23
64551;BME280;50945;44.472;-123.352;2022-08-19T07:21:19;100173.25;;;19.18;68.28
64551;BME280;50945;44.472;-123.352;2022-08-19T07:23:47;100169.56;;;19.13;68.43
64551;BME280;50945;44.472;-123.352;2022-08-19T07:26:17;100178.28;;;19.05;69.95
64551;BME280;50945;44.472;-123.352;2022-08-19T07:28:46;100180.94;;;18.99;68.48
64551;BME280;50945;44.472;-123.352;2022-08-19T07:31:15;100184.91;;;18.92;69.07
64551;BME280;50945;44.472;-123.352;2022-08-19T07:33:44;100192.03;;;18.88;68.76
64551;BME280;50945;44.472;-123.352;2022-08-19T07:36:13;100195.78;;;18.82;69.73
64551;BME280;50945;44.472;-123.352;2022-08-19T07:38:41;100190.69;;;18.78;69.51
64551;BME280;50945;44.472;-123.352;2022-08-19T07:41:14;100187.56;;;18.75;71.39
64551;BME280;50945;44.472;-123.352;2022-08-19T07:43:40;100187.22;;;18.71;69.65
64551;BME280;50945;44.472;-123.352;2022-08-19T07:46:10;100188.78;;;18.67;69.95
64551;BME280;50945;44.472;-123.352;2022-08-19T07:48:37;100192.28;;;18.62;70.12
64551;BME280;50945;44.472;-123.352;2022-08-19T07:51:04;100196.84;;;18.57;71.52
64551;BME280;50945;44.472;-123.352;2022-08-19T07:53:32;100196.00;;;18.56;69.50
64551;BME280;50945;44.472;-123.352;2022-08-19T07:55:59;100198.66;;;18.51;70.44
64551;BME280;50945;44.472;-123.352;2022-08-19T07:58:36;100197.81;;;18.51;72.92
64551;BME280;50945;44.472;-123.352;2022-08-19T08:01:06;100207.69;;;18.47;70.15
64551;BME280;50945;44.472;-123.352;2022-08-19T08:03:33;100213.09;;;18.41;70.35
64551;BME280;50945;44.472;-123.352;2022-08-19T08:06:18;100212.25;;;18.41;70.23
64551;BME280;50945;44.472;-123.352;2022-08-19T08:09:04;100213.78;;;18.37;70.61
64551;BME280;50945;44.472;-123.352;2022-08-19T08:11:54;100210.44;;;18.35;70.56
64551;BME280;50945;44.472;-123.352;2022-08-19T08:14:45;100212.00;;;18.31;73.66
64551;BME280;50945;44.472;-123.352;2022-08-19T08:17:17;100206.94;;;18.28;70.58
64551;BME280;50945;44.472;-123.352;2022-08-19T08:19:45;100209.94;;;18.26;72.37
64551;BME280;50945;44.472;-123.352;2022-08-19T08:22:14;100204.91;;;18.23;70.43
64551;BME280;50945;44.472;-123.352;2022-08-19T08:25:11;100214.28;;;18.22;71.20
64551;BME280;50945;44.472;-123.352;2022-08-19T08:27:40;100213.44;;;18.21;70.76
64551;BME280;50945;44.472;-123.352;2022-08-19T08:30:25;100217.03;;;18.22;72.05
64551;BME280;50945;44.472;-123.352;2022-08-19T08:32:52;100218.38;;;18.19;70.55
64551;BME280;50945;44.472;-123.352;2022-08-19T08:35:21;100215.84;;;18.18;70.75
64551;BME280;50945;44.472;-123.352;2022-08-19T08:37:50;100215.25;;;18.16;70.69
64551;BME280;50945;44.472;-123.352;2022-08-19T08:40:38;100209.94;;;18.14;71.01
64551;BME280;50945;44.472;-123.352;2022-08-19T08:43:32;100212.13;;;18.12;72.32
64551;BME280;50945;44.472;-123.352;2022-08-19T08:51:43;100211.13;;;18.07;70.89
64551;BME280;50945;44.472;-123.352;2022-08-19T08:54:14;100222.19;;;18.07;70.88
64551;BME280;50945;44.472;-123.352;2022-08-19T08:56:44;100212.44;;;18.04;71.05
64551;BME280;50945;44.472;-123.352;2022-08-19T08:59:21;100212.69;;;18.02;70.82
64551;BME280;50945;44.472;-123.352;2022-08-19T09:01:50;100221.44;;;17.99;71.08
64551;BME280;50945;44.472;-123.352;2022-08-19T09:04:16;100214.47;;;17.97;71.13
64551;BME280;50945;44.472;-123.352;2022-08-19T09:17:00;100224.03;;;17.82;71.48
64551;BME280;50945;44.472;-123.352;2022-08-19T09:19:29;100220.66;;;17.80;71.17
64551;BME280;50945;44.472;-123.352;2022-08-19T09:21:56;100224.72;;;17.78;71.64
64551;BME280;50945;44.472;-123.352;2022-08-19T09:24:22;100224.59;;;17.73;73.59
64551;BME280;50945;44.472;-123.352;2022-08-19T09:26:48;100230.97;;;17.73;71.20
64551;BME280;50945;44.472;-123.352;2022-08-19T09:29:14;100230.13;;;17.73;71.33
64551;BME280;50945;44.472;-123.352;2022-08-19T09:31:41;100230.97;;;17.73;71.56
64551;BME280;50945;44.472;-123.352;2022-08-19T09:34:07;100229.28;;;17.72;71.46
64551;BME280;50945;44.472;-123.352;2022-08-19T09:36:34;100228.69;;;17.70;71.66
64551;BME280;50945;44.472;-123.352;2022-08-19T09:39:05;100227.59;;;17.71;71.68
64551;BME280;50945;44.472;-123.352;2022-08-19T09:41:32;100236.13;;;17.70;71.41
64551;BME280;50945;44.472;-123.352;2022-08-19T09:43:58;100243.34;;;17.71;71.61
64551;BME280;50945;44.472;-123.352;2022-08-19T09:46:27;100240.56;;;17.71;71.75
64551;BME280;50945;44.472;-123.352;2022-08-19T09:48:54;100234.81;;;17.72;71.79
64551;BME280;50945;44.472;-123.352;2022-08-19T09:51:24;100237.34;;;17.74;71.80
64551;BME280;50945;44.472;-123.352;2022-08-19T09:53:52;100246.00;;;17.77;71.69
64551;BME280;50945;44.472;-123.352;2022-08-19T09:56:23;100243.84;;;17.79;71.70
64551;BME280;50945;44.472;-123.352;2022-08-19T09:58:49;100240.03;;;17.80;71.75
64551;BME280;50945;44.472;-123.352;2022-08-19T10:01:18;100247.22;;;17.81;71.51
64551;BME280;50945;44.472;-123.352;2022-08-19T10:03:48;100249.16;;;17.81;71.96
64551;BME280;50945;44.472;-123.352;2022-08-19T10:06:15;100248.91;;;17.82;71.84
64551;BME280;50945;44.472;-123.352;2022-08-19T10:08:42;100251.44;;;17.84;71.75
64551;BME280;50945;44.472;-123.352;2022-08-19T10:11:08;100248.69;;;17.84;71.96
64551;BME280;50945;44.472;-123.352;2022-08-19T10:13:35;100260.81;;;17.83;76.17
64551;BME280;50945;44.472;-123.352;2022-08-19T10:16:08;100260.38;;;17.86;72.28
64551;BME280;50945;44.472;-123.352;2022-08-19T10:18:36;100261.59;;;17.90;71.97
64551;BME280;50945;44.472;-123.352;2022-08-19T10:21:12;100254.13;;;17.91;72.13
64551;BME280;50945;44.472;-123.352;2022-08-19T10:23:41;100249.47;;;17.91;72.16
64551;BME280;50945;44.472;-123.352;2022-08-19T10:26:16;100242.00;;;17.92;72.15
64551;BME280;50945;44.472;-123.352;2022-08-19T10:28:43;100247.53;;;17.92;72.24
64551;BME280;50945;44.472;-123.352;2022-08-19T10:31:14;100249.22;;;17.93;72.40
64551;BME280;50945;44.472;-123.352;2022-08-19T10:33:41;100252.22;;;17.91;72.37
64551;BME280;50945;44.472;-123.352;2022-08-19T10:36:14;100258.81;;;17.90;72.59
64551;BME280;50945;44.472;-123.352;2022-08-19T10:38:44;100254.13;;;17.91;72.28
64551;BME280;50945;44.472;-123.352;2022-08-19T10:41:16;100250.75;;;17.89;72.39
64551;BME280;50945;44.472;-123.352;2022-08-19T10:43:43;100254.63;;;17.88;72.42
64551;BME280;50945;44.472;-123.352;2022-08-19T10:46:13;100262.31;;;17.85;72.57
64551;BME280;50945;44.472;-123.352;2022-08-19T10:48:41;100265.28;;;17.84;72.67
64551;BME280;50945;44.472;-123.352;2022-08-19T10:51:09;100260.56;;;17.84;72.51
64551;BME280;50945;44.472;-123.352;2022-08-19T10:53:54;100262.50;;;17.84;72.66
64551;BME280;50945;44.472;-123.352;2022-08-19T10:56:21;100268.03;;;17.84;72.68
64551;BME280;50945;44.472;-123.352;2022-08-19T10:59:06;100265.91;;;17.86;72.38
64551;BME280;50945;44.472;-123.352;2022-08-19T11:01:34;100266.94;;;17.85;72.53
64551;BME280;50945;44.472;-123.352;2022-08-19T11:04:02;100271.44;;;17.86;72.59
64551;BME280;50945;44.472;-123.352;2022-08-19T11:06:31;100276.75;;;17.88;72.50
64551;BME280;50945;44.472;-123.352;2022-08-19T11:08:58;100281.16;;;17.89;72.35
64551;BME280;50945;44.472;-123.352;2022-08-19T11:11:25;100277.34;;;17.90;72.14
64551;BME280;50945;44.472;-123.352;2022-08-19T11:13:52;100289.22;;;17.90;72.32
64551;BME280;50945;44.472;-123.352;2022-08-19T11:16:19;100287.19;;;17.85;75.38
64551;BME280;50945;44.472;-123.352;2022-08-19T11:18:52;100283.34;;;17.86;72.39
64551;BME280;50945;44.472;-123.352;2022-08-19T11:23:51;100283.53;;;17.85;72.42
64551;BME280;50945;44.472;-123.352;2022-08-19T11:26:20;100275.47;;;17.83;72.04
64551;BME280;50945;44.472;-123.352;2022-08-19T11:28:47;100284.03;;;17.82;71.98
64551;BME280;50945;44.472;-123.352;2022-08-19T11:31:17;100278.34;;;17.77;72.05
64551;BME280;50945;44.472;-123.352;2022-08-19T11:33:44;100283.50;;;17.73;72.49
64551;BME280;50945;44.472;-123.352;2022-08-19T11:36:12;100283.72;;;17.72;72.77
64551;BME280;50945;44.472;-123.352;2022-08-19T11:38:38;100287.78;;;17.69;72.73
64551;BME280;50945;44.472;-123.352;2022-08-19T11:41:06;100287.19;;;17.67;72.67
64551;BME280;50945;44.472;-123.352;2022-08-19T11:43:34;100293.81;;;17.66;72.90
64551;BME280;50945;44.472;-123.352;2022-08-19T11:46:05;100294.03;;;17.64;72.96
64551;BME280;50945;44.472;-123.352;2022-08-19T11:48:33;100297.25;;;17.61;72.87
64551;BME280;50945;44.472;-123.352;2022-08-19T11:51:02;100299.88;;;17.56;73.04
64551;BME280;50945;44.472;-123.352;2022-08-19T11:53:31;100296.72;;;17.53;73.19
64551;BME280;50945;44.472;-123.352;2022-08-19T11:55:57;100292.53;;;17.50;73.21
64551;BME280;50945;44.472;-123.352;2022-08-19T11:58:23;100300.81;;;17.50;73.37
64551;BME280;50945;44.472;-123.352;2022-08-19T12:00:51;100296.72;;;17.53;73.12
64551;BME280;50945;44.472;-123.352;2022-08-19T12:03:18;100297.56;;;17.53;72.96
64551;BME280;50945;44.472;-123.352;2022-08-19T12:05:45;100296.72;;;17.53;73.03
64551;BME280;50945;44.472;-123.352;2022-08-19T12:08:12;100304.41;;;17.51;73.16
64551;BME280;50945;44.472;-123.352;2022-08-19T12:10:39;100305.47;;;17.49;73.39
64551;BME280;50945;44.472;-123.352;2022-08-19T12:13:09;100314.00;;;17.48;73.68
64551;BME280;50945;44.472;-123.352;2022-08-19T12:15:37;100315.09;;;17.47;73.36
64551;BME280;50945;44.472;-123.352;2022-08-19T12:18:07;100315.31;;;17.45;73.82
64551;BME280;50945;44.472;-123.352;2022-08-19T12:20:39;100321.53;;;17.41;73.75
64551;BME280;50945;44.472;-123.352;2022-08-19T12:23:07;100315.72;;;17.31;73.64
64551;BME280;50945;44.472;-123.352;2022-08-19T12:25:36;100322.75;;;17.26;73.63
64551;BME280;50945;44.472;-123.352;2022-08-19T12:28:02;100312.19;;;17.23;73.65
64551;BME280;50945;44.472;-123.352;2022-08-19T12:30:29;100310.47;;;17.22;73.96
64551;BME280;50945;44.472;-123.352;2022-08-19T12:32:55;100319.00;;;17.21;74.08
64551;BME280;50945;44.472;-123.352;2022-08-19T12:35:22;100311.81;;;17.20;73.67
64551;BME280;50945;44.472;-123.352;2022-08-19T12:37:48;100317.53;;;17.18;74.00
64551;BME280;50945;44.472;-123.352;2022-08-19T12:40:15;100330.38;;;17.13;78.16
64551;BME280;50945;44.472;-123.352;2022-08-19T12:42:42;100319.53;;;17.11;74.18
64551;BME280;50945;44.472;-123.352;2022-08-19T12:45:12;100326.56;;;17.07;77.81
64551;BME280;50945;44.472;-123.352;2022-08-19T12:47:39;100322.97;;;17.06;74.08
64551;BME280;50945;44.472;-123.352;2022-08-19T12:50:07;100325.13;;;17.04;74.04
64551;BME280;50945;44.472;-123.352;2022-08-19T12:52:35;100328.09;;;17.03;73.85
64551;BME280;50945;44.472;-123.352;2022-08-19T12:55:10;100331.94;;;17.02;74.50